createdAt,value
2023-03-12T00:02:03.975Z,12.96
2023-03-12T00:04:34.660Z,12.96
2023-03-12T00:07:01.560Z,12.95
2023-03-12T00:09:28.994Z,12.96
2023-03-12T00:11:55.639Z,12.95
2023-03-12T00:14:22.252Z,12.94
2023-03-12T00:16:48.980Z,12.92
2023-03-12T00:19:15.715Z,12.91
2023-03-12T00:21:42.393Z,12.89
2023-03-12T00:24:09.092Z,12.88
2023-03-12T00:26:35.776Z,12.86
2023-03-12T00:29:02.528Z,12.84
2023-03-12T00:31:33.019Z,12.85
2023-03-12T00:34:01.828Z,12.83
2023-03-12T00:36:31.647Z,12.82
2023-03-12T00:38:59.923Z,12.82
2023-03-12T00:41:27.373Z,12.82
2023-03-12T00:43:54.621Z,12.83
2023-03-12T00:46:22.122Z,12.82
2023-03-12T00:48:49.105Z,12.83
2023-03-12T00:51:16.009Z,12.81
2023-03-12T00:53:42.884Z,12.80
2023-03-12T00:56:10.166Z,12.80
2023-03-12T00:58:37.088Z,12.79
2023-03-12T01:01:04.881Z,12.79
2023-03-12T01:03:31.621Z,12.79
2023-03-12T01:05:58.288Z,12.79
2023-03-12T01:08:25.196Z,12.79
2023-03-12T01:10:52.422Z,12.80
2023-03-12T01:13:19.633Z,12.79
2023-03-12T01:15:46.447Z,12.79
2023-03-12T01:18:13.311Z,12.78
2023-03-12T01:20:41.077Z,12.77
2023-03-12T01:23:08.344Z,12.74
2023-03-12T01:25:36.147Z,12.71
2023-03-12T01:28:03.531Z,12.70
2023-03-12T01:30:30.628Z,12.68
2023-03-12T01:32:57.497Z,12.68
2023-03-12T01:35:25.391Z,12.66
2023-03-12T01:37:53.220Z,12.65
2023-03-12T01:40:25.595Z,12.64
2023-03-12T01:42:54.612Z,12.63
2023-03-12T01:46:03.145Z,12.62
2023-03-12T01:49:08.918Z,12.62
2023-03-12T01:52:00.973Z,12.62
2023-03-12T01:54:36.030Z,12.62
2023-03-12T01:57:06.387Z,12.62
2023-03-12T01:59:38.922Z,12.63
2023-03-12T02:02:06.978Z,12.63
2023-03-12T02:04:34.742Z,12.64
2023-03-12T02:07:05.603Z,12.64
2023-03-12T02:09:34.958Z,12.65
2023-03-12T02:12:02.111Z,12.66
2023-03-12T02:14:29.155Z,12.65
2023-03-12T02:16:56.899Z,12.65
2023-03-12T02:19:38.305Z,12.66
2023-03-12T02:22:05.112Z,12.66
2023-03-12T02:25:03.997Z,12.65
2023-03-12T02:27:34.207Z,12.65
2023-03-12T02:30:02.130Z,12.65
2023-03-12T02:32:36.217Z,12.64
2023-03-12T02:35:05.000Z,12.64
2023-03-12T02:37:32.226Z,12.64
2023-03-12T02:40:11.254Z,12.64
2023-03-12T02:42:38.013Z,12.63
2023-03-12T02:45:05.265Z,12.63
2023-03-12T02:47:32.978Z,12.61
2023-03-12T02:49:59.992Z,12.60
2023-03-12T02:52:26.719Z,12.59
2023-03-12T02:54:53.782Z,12.57
2023-03-12T02:57:20.563Z,12.57
2023-03-12T02:59:47.366Z,12.57
2023-03-12T03:02:14.544Z,12.57
2023-03-12T03:04:41.378Z,12.55
2023-03-12T03:07:08.097Z,12.54
2023-03-12T03:09:34.891Z,12.51
2023-03-12T03:12:02.142Z,12.49
2023-03-12T03:14:29.984Z,12.47
2023-03-12T03:16:56.701Z,12.46
2023-03-12T03:19:23.495Z,12.45
2023-03-12T03:21:50.268Z,12.44
2023-03-12T03:24:17.141Z,12.42
2023-03-12T03:26:44.616Z,12.42
2023-03-12T03:29:11.354Z,12.41
2023-03-12T03:31:38.164Z,12.40
2023-03-12T03:34:05.038Z,12.39
2023-03-12T03:36:31.862Z,12.39
2023-03-12T03:39:08.683Z,12.39
2023-03-12T03:41:35.547Z,12.38
2023-03-12T03:44:02.430Z,12.40
2023-03-12T03:46:30.261Z,12.38
2023-03-12T03:49:01.667Z,12.36
2023-03-12T03:51:29.053Z,12.34
2023-03-12T03:54:00.677Z,12.33
2023-03-12T03:56:27.644Z,12.32
2023-03-12T03:58:54.509Z,12.32
2023-03-12T04:01:21.928Z,12.30
2023-03-12T04:03:49.275Z,12.28
2023-03-12T04:06:15.980Z,12.26
2023-03-12T04:08:42.902Z,12.27
2023-03-12T04:11:15.841Z,12.26
2023-03-12T04:13:43.645Z,12.25
2023-03-12T04:16:12.456Z,12.24
2023-03-12T04:18:40.362Z,12.23
2023-03-12T04:21:11.005Z,12.23
2023-03-12T04:23:38.596Z,12.22
2023-03-12T04:26:07.414Z,12.20
2023-03-12T04:28:35.771Z,12.19
2023-03-12T04:31:05.832Z,12.19
2023-03-12T04:33:40.863Z,12.19
2023-03-12T04:36:08.890Z,12.18
2023-03-12T04:38:37.211Z,12.18
2023-03-12T04:41:12.513Z,12.17
2023-03-12T04:43:43.575Z,12.16
2023-03-12T04:46:11.249Z,12.15
2023-03-12T04:48:38.493Z,12.15
2023-03-12T04:51:06.710Z,12.14
2023-03-12T04:53:33.782Z,12.13
2023-03-12T04:56:01.322Z,12.10
2023-03-12T04:58:28.867Z,12.09
2023-03-12T05:00:55.737Z,12.08
2023-03-12T05:03:23.131Z,12.07
2023-03-12T05:05:50.665Z,12.07
2023-03-12T05:08:17.392Z,12.06
2023-03-12T05:10:45.564Z,12.04
2023-03-12T05:13:16.651Z,12.04
2023-03-12T05:15:44.394Z,12.01
2023-03-12T05:18:11.655Z,11.99
2023-03-12T05:20:38.443Z,11.98
2023-03-12T05:23:07.375Z,11.96
2023-03-12T05:25:34.636Z,11.94
2023-03-12T05:28:01.940Z,11.93
2023-03-12T05:30:28.880Z,11.94
2023-03-12T05:32:55.756Z,11.94
2023-03-12T05:35:23.142Z,11.95
2023-03-12T05:37:50.837Z,11.94
2023-03-12T05:40:17.714Z,11.94
2023-03-12T05:42:44.551Z,11.92
2023-03-12T05:45:11.519Z,11.92
2023-03-12T05:47:40.559Z,11.92
2023-03-12T05:50:08.285Z,11.92
2023-03-12T05:52:35.830Z,11.91
2023-03-12T05:55:03.085Z,11.91
2023-03-12T05:57:30.296Z,11.91
2023-03-12T05:59:57.557Z,11.92
2023-03-12T06:02:24.747Z,11.93
2023-03-12T06:04:51.593Z,11.94
2023-03-12T06:07:18.328Z,11.96
2023-03-12T06:09:45.021Z,12.04
2023-03-12T06:12:13.221Z,12.09
2023-03-12T06:14:40.122Z,12.14
2023-03-12T06:17:07.069Z,12.19
2023-03-12T06:19:33.902Z,12.25
2023-03-12T06:22:00.761Z,12.28
2023-03-12T06:24:28.033Z,12.33
2023-03-12T06:27:00.508Z,12.38
2023-03-12T06:29:27.366Z,12.43
2023-03-12T06:31:54.166Z,12.48
2023-03-12T06:34:21.005Z,12.52
2023-03-12T06:36:47.713Z,12.56
2023-03-12T06:39:14.411Z,12.60
2023-03-12T06:41:41.911Z,12.61
2023-03-12T06:44:08.676Z,12.64
2023-03-12T06:46:35.488Z,12.64
2023-03-12T06:49:02.612Z,12.64
2023-03-12T06:51:29.452Z,12.64
2023-03-12T06:53:56.149Z,12.64
2023-03-12T06:56:22.952Z,12.65
2023-03-12T06:58:50.242Z,12.69
2023-03-12T07:01:17.019Z,12.73
2023-03-12T07:03:43.779Z,12.80
2023-03-12T07:06:19.814Z,12.89
2023-03-12T07:08:47.537Z,13.00
2023-03-12T07:11:15.362Z,13.10
2023-03-12T07:13:42.242Z,13.20
2023-03-12T07:16:09.053Z,13.30
2023-03-12T07:18:35.835Z,13.40
2023-03-12T07:21:02.703Z,13.49
2023-03-12T07:23:29.424Z,13.56
2023-03-12T07:25:56.160Z,13.61
2023-03-12T07:28:23.154Z,13.65
2023-03-12T07:30:53.001Z,13.70
2023-03-12T07:33:21.703Z,13.77
2023-03-12T07:35:51.720Z,13.84
2023-03-12T07:38:19.326Z,13.89
2023-03-12T07:40:51.474Z,13.97
2023-03-12T07:43:20.404Z,14.08
2023-03-12T07:45:50.148Z,14.19
2023-03-12T07:48:19.971Z,14.29
2023-03-12T07:50:48.625Z,14.38
2023-03-12T07:53:15.756Z,14.45
2023-03-12T07:55:46.535Z,14.53
2023-03-12T07:58:15.643Z,14.60
2023-03-12T08:00:42.565Z,14.64
2023-03-12T08:03:09.620Z,14.71
2023-03-12T08:05:36.679Z,14.78
2023-03-12T08:08:04.154Z,14.87
2023-03-12T08:10:30.979Z,14.92
2023-03-12T08:12:58.017Z,14.96
2023-03-12T08:15:25.513Z,14.98
2023-03-12T15:26:28.143Z,18.48
2023-03-12T15:29:27.985Z,18.36
2023-03-12T15:31:57.770Z,18.25
2023-03-12T15:34:36.445Z,18.18
2023-03-12T15:37:41.262Z,18.13
2023-03-12T15:40:21.780Z,18.05
2023-03-12T15:42:49.633Z,17.98
2023-03-12T15:45:29.040Z,17.92
2023-03-12T15:47:56.039Z,17.84
2023-03-12T15:50:30.224Z,17.77
2023-03-12T15:53:07.880Z,17.69
2023-03-12T15:55:36.334Z,17.61
2023-03-12T15:58:03.191Z,17.57
2023-03-12T16:00:52.165Z,17.52
2023-03-12T16:03:21.141Z,17.45
2023-03-12T16:05:52.784Z,17.40
2023-03-12T16:08:23.495Z,17.34
2023-03-12T16:10:50.704Z,17.27
2023-03-12T16:13:20.446Z,17.18
2023-03-12T16:15:48.259Z,17.10
2023-03-12T16:18:20.037Z,17.03
2023-03-12T16:20:48.533Z,16.96
2023-03-12T16:23:16.379Z,16.87
2023-03-12T16:25:49.250Z,16.80
2023-03-12T16:28:18.926Z,16.74
2023-03-12T16:30:46.112Z,16.68
2023-03-12T16:33:16.392Z,16.63
2023-03-12T16:35:43.155Z,16.54
2023-03-12T16:38:10.267Z,16.44
2023-03-12T16:40:42.533Z,16.36
2023-03-12T16:43:16.827Z,16.28
2023-03-12T16:45:45.618Z,16.20
2023-03-12T16:48:18.607Z,16.13
2023-03-12T16:50:53.989Z,16.06
2023-03-12T16:53:21.138Z,16.00
2023-03-12T16:55:52.422Z,15.94
2023-03-12T16:58:20.710Z,15.87
2023-03-12T17:00:48.720Z,15.79
2023-03-12T17:03:33.802Z,15.71
2023-03-12T17:06:02.114Z,15.65
2023-03-12T17:08:29.145Z,15.60
2023-03-12T17:10:57.599Z,15.55
2023-03-12T17:13:27.582Z,15.52
2023-03-12T17:15:55.561Z,15.49
2023-03-12T17:18:23.100Z,15.48
2023-03-12T17:20:53.981Z,15.44
2023-03-12T17:23:20.598Z,15.40
2023-03-12T17:25:47.337Z,15.35
2023-03-12T17:28:15.602Z,15.30
2023-03-12T17:30:43.400Z,15.24
2023-03-12T17:33:15.833Z,15.21
2023-03-12T17:35:42.964Z,15.16
2023-03-12T17:38:10.759Z,15.11
2023-03-12T17:40:42.654Z,15.06
2023-03-12T17:43:09.499Z,15.00
2023-03-12T17:45:39.865Z,14.95
2023-03-12T17:48:06.891Z,14.92
2023-03-12T17:50:34.531Z,14.90
2023-03-12T17:53:01.208Z,14.89
2023-03-12T17:55:28.121Z,14.87
2023-03-12T17:57:54.874Z,14.84
2023-03-12T18:00:23.147Z,14.78
2023-03-12T18:02:51.034Z,14.72
2023-03-12T18:05:17.859Z,14.68
2023-03-12T18:07:47.412Z,14.63
2023-03-12T18:10:14.598Z,14.59
2023-03-12T18:12:41.605Z,14.52
2023-03-12T18:15:11.078Z,14.43
2023-03-12T18:17:37.982Z,14.35
2023-03-12T18:20:16.716Z,14.29
2023-03-12T18:22:46.427Z,14.21
2023-03-12T18:25:13.176Z,14.17
2023-03-12T18:27:39.976Z,14.11
2023-03-12T18:30:11.496Z,14.05
2023-03-12T18:32:38.894Z,13.97
2023-03-12T18:35:07.526Z,13.88
2023-03-12T18:37:34.598Z,13.77
2023-03-12T18:40:01.274Z,13.68
2023-03-12T18:42:27.986Z,13.60
2023-03-12T18:44:54.645Z,13.55
2023-03-12T18:47:21.390Z,13.48
2023-03-12T18:49:48.058Z,13.43
2023-03-12T18:52:14.713Z,13.37
2023-03-12T18:54:41.440Z,13.31
2023-03-12T18:57:08.143Z,13.26
2023-03-12T18:59:34.959Z,13.22
2023-03-12T19:02:01.686Z,13.19
2023-03-12T19:04:28.502Z,13.16
2023-03-12T19:06:55.324Z,13.12
2023-03-12T19:09:22.085Z,13.08
2023-03-12T19:11:49.085Z,13.04
2023-03-12T19:14:15.974Z,13.01
2023-03-12T19:16:42.808Z,12.98
2023-03-12T19:19:09.679Z,12.95
2023-03-12T19:21:36.326Z,12.94
2023-03-12T19:24:03.031Z,12.93
2023-03-12T19:26:29.679Z,12.91
2023-03-12T19:28:56.439Z,12.89
2023-03-12T19:31:23.305Z,12.83
2023-03-12T19:33:50.008Z,12.77
2023-03-12T19:36:16.685Z,12.74
2023-03-12T19:38:43.289Z,12.71
2023-03-12T19:41:10.406Z,12.70
2023-03-12T19:43:38.351Z,12.70
2023-03-12T19:46:05.696Z,12.68
2023-03-12T19:48:32.825Z,12.66
2023-03-12T19:51:07.779Z,12.64
2023-03-12T19:53:35.373Z,12.62
2023-03-12T19:56:02.418Z,12.58
2023-03-12T19:58:29.489Z,12.55
2023-03-12T20:01:00.352Z,12.49
2023-03-12T20:03:28.123Z,12.42
2023-03-12T20:05:55.033Z,12.33
2023-03-12T20:08:22.787Z,12.27
2023-03-12T20:10:49.904Z,12.21
2023-03-12T20:13:17.964Z,12.17
2023-03-12T20:15:47.321Z,12.13
2023-03-12T20:18:15.189Z,12.07
2023-03-12T20:20:43.083Z,12.02
2023-03-12T20:23:09.788Z,11.98
2023-03-12T20:25:41.864Z,11.97
2023-03-12T20:28:10.974Z,11.95
2023-03-12T20:30:41.457Z,11.92
2023-03-12T20:33:09.575Z,11.90
2023-03-12T20:35:36.874Z,11.87
2023-03-12T20:38:04.805Z,11.82
2023-03-12T20:40:31.585Z,11.77
2023-03-12T20:42:58.464Z,11.74
2023-03-12T20:45:25.205Z,11.72
2023-03-12T20:47:53.597Z,11.72
2023-03-12T20:50:20.502Z,11.71
2023-03-12T20:52:47.225Z,11.70
2023-03-12T20:55:13.853Z,11.67
2023-03-12T20:57:40.541Z,11.64
2023-03-12T21:00:09.468Z,11.62
2023-03-12T21:02:36.318Z,11.61
2023-03-12T21:05:03.758Z,11.61
2023-03-12T21:07:31.422Z,11.61
2023-03-12T21:09:58.234Z,11.61
2023-03-12T21:12:25.047Z,11.60
2023-03-12T21:14:51.888Z,11.56
2023-03-12T21:17:18.610Z,11.55
2023-03-12T21:19:47.107Z,11.53
2023-03-12T21:22:14.623Z,11.47
2023-03-12T21:24:41.284Z,11.44
2023-03-12T21:27:11.405Z,11.42
2023-03-12T21:29:38.218Z,11.39
2023-03-12T21:32:05.068Z,11.36
2023-03-12T21:34:32.261Z,11.35
2023-03-12T21:36:58.967Z,11.29
2023-03-12T21:39:27.292Z,11.23
2023-03-12T21:41:53.963Z,11.19
2023-03-12T21:44:20.684Z,11.15
2023-03-12T21:46:47.396Z,11.14
2023-03-12T21:49:14.243Z,11.13
2023-03-12T21:51:41.007Z,11.11
2023-03-12T21:54:12.565Z,11.09
2023-03-12T21:56:41.875Z,11.03
2023-03-12T21:59:09.047Z,10.91
2023-03-12T22:01:35.842Z,10.87
2023-03-12T22:04:03.849Z,10.84
2023-03-12T22:06:30.506Z,10.81
2023-03-12T22:08:57.794Z,10.81
2023-03-12T22:11:24.415Z,10.82
2023-03-12T22:13:51.112Z,10.81
2023-03-12T22:16:17.974Z,10.76
2023-03-12T22:18:46.505Z,10.67
2023-03-12T22:21:18.942Z,10.63
2023-03-12T22:23:51.164Z,10.62
2023-03-12T22:26:20.230Z,10.64
2023-03-12T22:28:54.831Z,10.64
2023-03-12T22:31:23.372Z,10.60
2023-03-12T22:33:50.167Z,10.58
2023-03-12T22:36:18.766Z,10.58
2023-03-12T22:38:47.807Z,10.57
2023-03-12T22:41:19.249Z,10.55
2023-03-12T22:43:47.530Z,10.51
2023-03-12T22:46:16.674Z,10.45
2023-03-12T22:48:44.864Z,10.43
2023-03-12T22:51:12.555Z,10.44
2023-03-12T22:53:39.273Z,10.43
2023-03-12T22:56:08.629Z,10.45
2023-03-12T22:58:36.086Z,10.46
2023-03-12T23:01:13.870Z,10.48
2023-03-12T23:03:42.376Z,10.47
2023-03-12T23:06:12.288Z,10.40
2023-03-12T23:08:39.581Z,10.33
2023-03-12T23:11:07.714Z,10.28
2023-03-12T23:13:36.531Z,10.24
2023-03-12T23:16:16.112Z,10.23
2023-03-12T23:18:43.250Z,10.20
2023-03-12T23:21:13.718Z,10.19
2023-03-12T23:23:43.481Z,10.19
2023-03-12T23:26:22.008Z,10.20
2023-03-12T23:28:51.279Z,10.20
2023-03-12T23:31:18.264Z,10.19
2023-03-12T23:33:45.131Z,10.19
2023-03-12T23:36:15.347Z,10.16
2023-03-12T23:38:42.528Z,10.12
2023-03-12T23:41:21.330Z,10.12
2023-03-12T23:43:48.404Z,10.13
2023-03-12T23:46:18.964Z,10.14
2023-03-12T23:48:45.840Z,10.12
2023-03-12T23:51:15.308Z,10.11
2023-03-12T23:53:44.291Z,10.12
2023-03-12T23:56:17.256Z,10.07
2023-03-12T23:58:45.047Z,10.04
